Glenville, Connecticut
Current Conditions -  °F | °C
As of 1:56 AM on Friday 31 Oct 2014 (Local Time) from KHPN Reporting Station
Clear Clear  
Wind Chill: 38°   Ceiling: Unl
Heat Index: 42°   Visibility: 10mi
Dew Point: 34°   Wind: 6mph
Humidity: 73%   Direction: 350°N
Pressure: 30"   Gusts: NA
Location:  41.0864°N, 73.6612°W
Report Text: KHPN 310556Z 35005KT 10SM CLR 06/01 A3000 RMK AO2 SLP163 T00560011 10089 20039 58001 $
Loading
Personal Weather Stations






























Interactive Weather Map
Tropical Storm Tracking
New forecast layout! Learn more

10-Day Weather Forecast

Advertisements
Track Severe Weather on mobile